Centennial, WY (82055)

2:43 PM MDT on September 21, 2014 (GMT -0600)
Aspen Country | Change Station
CLOSE
Current Station
Personal Weather Station
Location: Centennial, WY
Elevation: 8050 ft
Nearby Weather Stations

Elev 8050 ft 41.29 °N, 106.15 °W | Updated 12 minutes ago

Overcast
Overcast
60.1 °F
Feels Like 60.1 °F
N
3.0
Wind Variable Wind from North
Gusts 3.0 mph

Today
High -- | Low -- °F
--% Chance of Precip.
Yesterday
High -- | Low -- °F
Precip. -- in
6:51 AM 7:03 PM
Waning Crescent, 5% visible
Pressure 30.06 in
Visibility 10.0 miles
Clouds Clear
Dew Point 52 °F
Humidity 75%
Rainfall 0.03 in
Snow Depth 1 in , 0 in , 1 in
UV 8 out of 12
Pollen 5.60 out of 12
Air Quality Not available.
Flu Activity Not available.
METAR KLAR 211953Z AUTO 17015G21KT 10SM CLR 22/06 A3034 RMK AO2 SLP179 T02170061

More Conditions Fewer Conditions

Pressure 30.06 in
Visibility 10.0 miles
Clouds Clear
Dew Point 52 °F
Humidity 75%
Rainfall 0.03 in
Snow Depth 1 in , 0 in , 1 in
UV 8 out of 12
Pollen 5.60 out of 12
Air Quality Not available.
Flu Activity Not available.
METAR KLAR 211953Z AUTO 17015G21KT 10SM CLR 22/06 A3034 RMK AO2 SLP179 T02170061

More Conditions Fewer Conditions

10-Day Weather Forecast

Almanac

Astronomy

Sep. 21, 2014 Rise Set
Actual Time 6:51 AM MDT 7:03 PM MDT
Civil Twilight 6:23 AM MDT 7:30 PM MDT
Nautical Twilight 5:51 AM MDT 8:03 PM MDT
Astronomical Twilight 5:18 AM MDT 8:36 PM MDT
Moon 4:26 AM MDT 5:41 PM MDT
Length of Visible Light 13h 07m
Length of Day
12h 12m
Tomorrow will be 2m 44s shorter.
Waning Crescent, 5% of the Moon is Illuminated
Today
Waning Crescent
Sep 24
New
Oct 1
First Quarter
Oct 8
Full
Oct 15
Last Quarter

Today's Extremes

State Highs State Lows

Community

WunderPhotos

Upload Photos

1,755,250 photos uploaded!

Nearby

Snow Depth

Station Depth Elevation
Willow Creek 1 in 8450 ft
Phillips Bench 0 in 8200 ft
Blind Bull Summit 1 in 8900 ft
Kendall R.S. 0 in 7740 ft
Townsend Creek 0 in 8700 ft

Earthquake Activity

City Distance Mag. Time & Date
No recent earthquake activity has been reported nearby.
Minimum magnitude displayed is 2.5.

Coastal Water Temperatures

Place Temperature
No Stations Reporting

Nearby Weather Stations